createdAt,value
2023-01-19T00:01:32.225Z,0.60
2023-01-19T00:03:59.360Z,0.80
2023-01-19T00:06:26.759Z,0.40
2023-01-19T00:08:54.021Z,0.77
2023-01-19T00:11:21.317Z,0.40
2023-01-19T00:13:51.185Z,0.60
2023-01-19T00:16:19.983Z,1.10
2023-01-19T00:18:48.132Z,0.60
2023-01-19T00:21:15.972Z,2.10
2023-01-19T00:23:47.533Z,0.73
2023-01-19T00:26:16.650Z,0.50
2023-01-19T00:28:44.801Z,0.50
2023-01-19T00:31:12.802Z,0.83
2023-01-19T00:33:39.975Z,0.67
2023-01-19T00:36:07.787Z,0.43
2023-01-19T00:38:35.100Z,0.70
2023-01-19T00:41:02.379Z,1.10
2023-01-19T00:43:29.656Z,1.40
2023-01-19T00:45:56.821Z,0.50
2023-01-19T00:48:24.160Z,0.50
2023-01-19T00:50:51.333Z,2.43
2023-01-19T00:53:18.668Z,1.23
2023-01-19T00:55:46.374Z,1.30
2023-01-19T00:58:13.641Z,1.27
2023-01-19T01:00:40.680Z,0.40
2023-01-19T01:03:07.900Z,1.33
2023-01-19T01:05:35.162Z,0.90
2023-01-19T01:08:03.718Z,1.17
2023-01-19T01:10:31.428Z,0.50
2023-01-19T01:12:59.411Z,1.30
2023-01-19T01:15:53.377Z,0.73
2023-01-19T01:18:21.669Z,0.47
2023-01-19T01:20:49.266Z,0.60
2023-01-19T01:23:16.471Z,0.50
2023-01-19T01:25:43.655Z,0.60
2023-01-19T01:28:10.840Z,0.70
2023-01-19T01:30:41.289Z,1.30
2023-01-19T01:33:08.896Z,0.97
2023-01-19T01:35:36.041Z,0.40
2023-01-19T01:38:04.125Z,0.70
2023-01-19T01:40:31.759Z,1.03
2023-01-19T01:42:59.299Z,0.67
2023-01-19T01:45:29.886Z,0.50
2023-01-19T01:48:03.159Z,0.40
2023-01-19T01:50:34.257Z,0.40
2023-01-19T01:53:14.210Z,0.40
2023-01-19T01:55:49.324Z,0.47
2023-01-19T01:58:17.188Z,0.50
2023-01-19T02:01:03.188Z,0.60
2023-01-19T02:03:32.570Z,0.37
2023-01-19T02:06:01.989Z,0.40
2023-01-19T02:08:57.684Z,0.50
2023-01-19T02:11:43.886Z,0.50
2023-01-19T02:14:11.247Z,0.73
2023-01-19T02:16:39.269Z,0.40
2023-01-19T02:19:08.910Z,0.97
2023-01-19T02:21:39.196Z,0.73
2023-01-19T02:24:07.368Z,0.57
2023-01-19T02:26:40.604Z,2.00
2023-01-19T02:29:11.687Z,0.53
2023-01-19T02:31:40.572Z,0.63
2023-01-19T02:34:11.252Z,0.50
2023-01-19T02:36:53.253Z,0.60
2023-01-19T02:39:33.223Z,0.57
2023-01-19T02:42:26.905Z,0.60
2023-01-19T02:44:56.453Z,0.50
2023-01-19T02:47:24.203Z,1.80
2023-01-19T02:49:59.251Z,0.40
2023-01-19T02:52:28.013Z,1.10
2023-01-19T02:55:19.992Z,0.60
2023-01-19T02:58:00.879Z,2.93
2023-01-19T03:00:57.870Z,0.50
2023-01-19T03:03:33.239Z,0.40
2023-01-19T03:06:16.800Z,0.60
2023-01-19T03:08:55.346Z,0.40
2023-01-19T03:11:27.060Z,0.90
2023-01-19T03:14:02.120Z,2.27
2023-01-19T03:16:50.141Z,1.27
2023-01-19T03:19:27.272Z,0.50
2023-01-19T03:22:19.588Z,0.50
2023-01-19T03:24:48.328Z,0.50
2023-01-19T03:27:21.226Z,0.50
2023-01-19T03:29:52.347Z,0.50
2023-01-19T03:32:23.836Z,0.60
2023-01-19T03:34:54.203Z,0.73
2023-01-19T03:37:24.349Z,0.40
2023-01-19T03:39:52.089Z,0.50
2023-01-19T03:42:20.525Z,0.50
2023-01-19T03:44:50.753Z,0.40
2023-01-19T03:47:19.485Z,0.50
2023-01-19T03:49:48.727Z,0.50
2023-01-19T03:52:15.930Z,0.50
2023-01-19T03:54:43.556Z,1.90
2023-01-19T03:57:10.644Z,0.60
2023-01-19T03:59:37.787Z,0.40
2023-01-19T04:02:05.127Z,0.40
2023-01-19T04:04:32.389Z,0.40
2023-01-19T04:06:59.593Z,0.70
2023-01-19T04:09:27.301Z,0.53
2023-01-19T04:11:54.706Z,0.60
2023-01-19T04:14:22.011Z,0.60
2023-01-19T04:16:49.211Z,0.80
2023-01-19T04:19:16.334Z,0.50
2023-01-19T04:21:43.455Z,0.57
2023-01-19T04:24:11.116Z,1.00
2023-01-19T04:26:38.288Z,0.40
2023-01-19T04:29:05.575Z,0.83
2023-01-19T04:31:33.379Z,0.50
2023-01-19T04:34:00.524Z,0.40
2023-01-19T04:36:28.453Z,0.50
2023-01-19T04:38:56.333Z,0.43
2023-01-19T04:41:23.469Z,0.40
2023-01-19T04:43:50.869Z,0.40
2023-01-19T04:46:18.037Z,0.40
2023-01-19T04:48:45.164Z,0.40
2023-01-19T04:51:12.337Z,0.40
2023-01-19T04:53:39.553Z,0.50
2023-01-19T04:56:07.579Z,0.43
2023-01-19T04:58:34.880Z,0.43
2023-01-19T05:01:02.142Z,0.40
2023-01-19T05:03:29.455Z,0.73
2023-01-19T05:05:56.562Z,0.43
2023-01-19T05:08:24.579Z,0.43
2023-01-19T05:10:51.933Z,1.13
2023-01-19T05:13:19.141Z,0.40
2023-01-19T05:15:46.287Z,0.50
2023-01-19T05:18:13.626Z,0.43
2023-01-19T05:20:41.333Z,0.97
2023-01-19T05:23:08.468Z,1.57
2023-01-19T05:25:35.930Z,0.97
2023-01-19T05:28:04.112Z,0.40
2023-01-19T05:30:31.401Z,0.83
2023-01-19T05:32:59.034Z,0.50
2023-01-19T05:35:35.666Z,0.40
2023-01-19T05:38:03.540Z,0.47
2023-01-19T05:40:30.751Z,0.30
2023-01-19T05:43:01.879Z,0.40
2023-01-19T05:45:29.342Z,0.67
2023-01-19T05:47:56.493Z,0.40
2023-01-19T05:50:23.916Z,1.50
2023-01-19T05:52:53.359Z,0.40
2023-01-19T05:55:21.791Z,0.50
2023-01-19T05:57:48.987Z,1.30
2023-01-19T06:00:16.770Z,0.50
2023-01-19T06:02:44.447Z,0.53
2023-01-19T06:05:11.580Z,0.40
2023-01-19T06:07:39.361Z,1.47
2023-01-19T06:10:07.114Z,1.70
2023-01-19T06:12:34.790Z,0.40
2023-01-19T06:15:01.998Z,0.40
2023-01-19T06:17:32.662Z,0.50
2023-01-19T06:19:59.873Z,0.40
2023-01-19T06:22:26.958Z,0.40
2023-01-19T06:24:54.330Z,0.50
2023-01-19T06:27:21.490Z,0.40
2023-01-19T06:29:48.690Z,0.57
2023-01-19T06:32:15.826Z,0.50
2023-01-19T06:34:43.965Z,0.60
2023-01-19T06:37:11.821Z,0.30
2023-01-19T06:39:41.235Z,0.50
2023-01-19T06:42:08.897Z,0.50
2023-01-19T06:44:36.081Z,0.40
2023-01-19T06:47:15.529Z,0.60
2023-01-19T06:49:43.436Z,0.40
2023-01-19T06:52:12.430Z,0.43
2023-01-19T06:54:39.639Z,0.37
2023-01-19T06:57:06.873Z,0.30
2023-01-19T06:59:34.131Z,0.50
2023-01-19T07:02:01.425Z,0.87
2023-01-19T07:04:48.444Z,0.43
2023-01-19T07:07:16.888Z,0.40
2023-01-19T07:09:44.072Z,0.40
2023-01-19T07:12:11.220Z,0.50
2023-01-19T07:14:38.558Z,1.23
2023-01-19T07:17:05.921Z,0.40
2023-01-19T07:19:34.979Z,0.50
2023-01-19T07:22:03.307Z,0.40
2023-01-19T07:24:38.043Z,0.43
2023-01-19T07:27:05.662Z,0.67
2023-01-19T07:29:32.871Z,1.13
2023-01-19T07:32:00.226Z,1.03
2023-01-19T07:34:27.399Z,1.20
2023-01-19T07:36:56.554Z,0.73
2023-01-19T07:39:23.713Z,0.40
2023-01-19T07:41:51.014Z,0.50
2023-01-19T07:44:18.641Z,0.60
2023-01-19T07:46:45.942Z,0.50
2023-01-19T07:49:13.581Z,0.90
2023-01-19T07:51:40.828Z,0.83
2023-01-19T07:54:08.637Z,0.60
2023-01-19T07:56:36.016Z,0.70
2023-01-19T07:59:03.161Z,0.50
2023-01-19T08:01:31.816Z,1.63
2023-01-19T08:03:59.202Z,0.60
2023-01-19T08:06:35.355Z,0.93
2023-01-19T08:09:05.700Z,0.53
2023-01-19T08:11:33.593Z,0.57
2023-01-19T08:14:01.084Z,0.60
2023-01-19T08:16:28.271Z,0.50
2023-01-19T08:18:55.453Z,0.67
2023-01-19T08:21:22.610Z,1.33
2023-01-19T08:23:54.923Z,0.60
2023-01-19T08:26:31.785Z,0.60
2023-01-19T08:29:05.029Z,1.80
2023-01-19T08:31:32.788Z,1.70
2023-01-19T08:34:00.115Z,2.60
2023-01-19T08:36:27.594Z,4.93
2023-01-19T08:38:54.754Z,2.87
2023-01-19T08:41:22.467Z,2.40
2023-01-19T08:43:50.163Z,2.60
2023-01-19T08:46:20.873Z,3.47
2023-01-19T08:48:51.081Z,1.97
2023-01-19T08:51:18.868Z,1.40
2023-01-19T08:53:46.064Z,2.40
2023-01-19T08:56:14.443Z,1.90
2023-01-19T08:58:43.798Z,1.50
2023-01-19T09:01:14.951Z,2.77
2023-01-19T09:03:42.516Z,2.47
2023-01-19T09:06:11.126Z,0.97
2023-01-19T09:08:38.624Z,1.53
2023-01-19T09:11:11.333Z,2.27
2023-01-19T09:13:39.580Z,2.80
2023-01-19T09:16:12.842Z,3.03
2023-01-19T09:18:40.309Z,4.47
2023-01-19T09:21:08.552Z,1.60
2023-01-19T09:23:35.786Z,1.23
2023-01-19T09:26:04.864Z,1.50
2023-01-19T09:28:32.554Z,1.80
2023-01-19T09:30:59.791Z,0.80
2023-01-19T09:33:27.243Z,0.63
2023-01-19T09:35:54.336Z,0.93
2023-01-19T09:38:22.540Z,0.50
2023-01-19T09:40:53.052Z,0.50
2023-01-19T09:43:23.473Z,0.77
2023-01-19T09:46:02.762Z,1.60
2023-01-19T09:48:46.683Z,0.50
2023-01-19T09:51:26.585Z,1.30
2023-01-19T09:54:10.922Z,0.50
2023-01-19T09:56:38.782Z,0.50
2023-01-19T09:59:29.276Z,0.80
2023-01-19T10:02:02.149Z,1.47
2023-01-19T10:04:45.446Z,1.03
2023-01-19T10:07:44.099Z,2.10
2023-01-19T10:10:22.111Z,3.50
2023-01-19T10:13:12.819Z,0.80
2023-01-19T10:16:15.324Z,0.97
2023-01-19T10:18:51.893Z,1.60
2023-01-19T10:21:28.129Z,0.97
2023-01-19T10:24:07.281Z,1.97
2023-01-19T10:26:39.019Z,1.23
2023-01-19T10:29:15.952Z,2.17
2023-01-19T10:31:46.265Z,0.57
2023-01-19T10:34:21.485Z,1.63
2023-01-19T10:36:53.753Z,2.43
2023-01-19T10:39:21.343Z,1.40
2023-01-19T10:41:53.717Z,1.00
2023-01-19T10:44:26.628Z,0.40
2023-01-19T10:46:59.252Z,1.17
2023-01-19T10:49:36.392Z,0.40
2023-01-19T10:52:05.775Z,0.40
2023-01-19T10:54:36.775Z,0.30
2023-01-19T10:57:10.390Z,0.73
2023-01-19T10:59:47.356Z,0.40
2023-01-19T11:02:32.054Z,0.40
2023-01-19T11:05:02.112Z,0.53
2023-01-19T11:07:33.372Z,0.40
2023-01-19T11:10:15.931Z,0.30
2023-01-19T11:12:52.484Z,0.30
2023-01-19T11:15:59.404Z,0.40
2023-01-19T11:18:40.722Z,0.40
2023-01-19T11:21:17.995Z,0.30
2023-01-19T11:24:05.563Z,0.60
2023-01-19T11:26:41.166Z,0.33
2023-01-19T11:29:26.201Z,0.40
2023-01-19T11:31:55.007Z,0.40
2023-01-19T11:34:32.948Z,0.50
2023-01-19T11:37:00.118Z,0.40
2023-01-19T11:39:29.757Z,0.30
2023-01-19T11:42:03.265Z,0.40
2023-01-19T11:44:35.566Z,1.20
2023-01-19T11:47:12.212Z,0.63
2023-01-19T11:49:42.838Z,1.63
2023-01-19T11:52:49.958Z,0.60
2023-01-19T11:55:42.345Z,0.77
2023-01-19T11:58:16.434Z,0.60
2023-01-19T12:00:57.554Z,1.07
2023-01-19T12:03:30.825Z,0.50
2023-01-19T12:06:07.242Z,0.40
2023-01-19T12:08:48.536Z,0.67
2023-01-19T12:11:23.509Z,1.83
2023-01-19T12:13:53.996Z,1.57
2023-01-19T12:16:28.681Z,1.07
2023-01-19T12:19:02.904Z,0.43
2023-01-19T12:21:30.526Z,1.03
2023-01-19T12:24:16.488Z,1.50
2023-01-19T12:26:53.566Z,0.60
2023-01-19T12:29:24.245Z,0.43
2023-01-19T12:32:18.460Z,1.00
2023-01-19T12:34:52.155Z,1.70
2023-01-19T12:37:31.190Z,0.60
2023-01-19T12:40:19.665Z,1.17
2023-01-19T12:42:51.156Z,0.70
2023-01-19T12:45:23.417Z,0.50
2023-01-19T12:47:53.238Z,0.70
2023-01-19T12:50:24.270Z,1.37
2023-01-19T12:53:19.038Z,1.00
2023-01-19T12:55:57.731Z,1.33
2023-01-19T12:58:25.728Z,0.50
2023-01-19T13:01:16.832Z,0.50
2023-01-19T13:04:03.791Z,0.60
2023-01-19T13:06:49.605Z,1.17
2023-01-19T13:09:33.842Z,0.40
2023-01-19T13:12:21.322Z,1.23
2023-01-19T13:14:50.899Z,0.80
2023-01-19T13:17:34.266Z,1.43
2023-01-19T13:20:16.271Z,2.03
2023-01-19T13:22:52.044Z,0.60
2023-01-19T13:25:35.794Z,1.63
2023-01-19T13:28:09.639Z,0.77
2023-01-19T13:30:40.194Z,1.77
2023-01-19T13:33:20.641Z,1.73
2023-01-19T13:36:16.543Z,3.27
2023-01-19T13:38:44.469Z,0.60
2023-01-19T13:41:17.007Z,0.97
2023-01-19T13:43:44.665Z,0.87
2023-01-19T13:46:14.475Z,0.80
2023-01-19T13:48:55.182Z,0.90
2023-01-19T13:51:22.525Z,0.73
2023-01-19T13:54:01.766Z,0.70
2023-01-19T13:56:30.190Z,0.50
2023-01-19T13:59:10.458Z,0.43
2023-01-19T14:01:40.069Z,0.70
2023-01-19T14:04:24.541Z,1.00
2023-01-19T14:06:55.758Z,0.70
2023-01-19T14:09:23.270Z,0.40
2023-01-19T14:12:13.007Z,0.53
2023-01-19T14:14:41.660Z,0.40
2023-01-19T14:17:32.521Z,0.60
2023-01-19T14:20:05.485Z,0.40
2023-01-19T14:22:43.848Z,0.40
2023-01-19T14:25:30.801Z,0.50
2023-01-19T14:28:38.821Z,0.97
2023-01-19T14:31:20.947Z,0.50
2023-01-19T14:33:53.540Z,1.33
2023-01-19T14:36:39.384Z,1.30
2023-01-19T14:39:23.519Z,1.10
2023-01-19T14:41:53.287Z,1.17
2023-01-19T14:44:33.220Z,1.80
2023-01-19T14:47:01.367Z,1.47
2023-01-19T14:49:40.420Z,1.53
2023-01-19T14:52:30.227Z,1.40
2023-01-19T14:54:59.451Z,0.90
2023-01-19T14:57:26.853Z,1.87
2023-01-19T14:59:56.014Z,2.77
2023-01-19T15:02:24.097Z,1.50
2023-01-19T15:04:55.442Z,2.50
2023-01-19T15:07:25.151Z,1.67
2023-01-19T15:09:52.478Z,2.30
2023-01-19T15:12:28.564Z,1.73
2023-01-19T15:14:56.620Z,2.03
2023-01-19T15:17:26.477Z,1.07
2023-01-19T15:19:57.331Z,1.03
2023-01-19T15:22:27.457Z,2.57
2023-01-19T15:24:57.743Z,0.97
2023-01-19T15:27:25.826Z,1.27
2023-01-19T15:29:52.990Z,1.17
2023-01-19T15:32:20.174Z,1.93
2023-01-19T15:34:47.487Z,1.70
2023-01-19T15:37:14.721Z,2.27
2023-01-19T15:39:41.892Z,3.43
2023-01-19T15:42:15.805Z,5.37
2023-01-19T15:44:45.094Z,2.00
2023-01-19T15:47:12.404Z,3.37
2023-01-19T15:49:39.552Z,1.57
2023-01-19T15:52:06.762Z,1.37
2023-01-19T15:54:34.345Z,1.60
2023-01-19T15:57:01.846Z,1.77
2023-01-19T15:59:29.066Z,2.07
2023-01-19T16:01:56.362Z,1.83
2023-01-19T16:04:23.731Z,3.13
2023-01-19T16:06:50.901Z,1.47
2023-01-19T16:09:20.268Z,2.13
2023-01-19T16:11:47.405Z,5.67
2023-01-19T16:14:16.604Z,2.47
2023-01-19T16:16:46.303Z,3.33
2023-01-19T16:19:16.001Z,2.23
2023-01-19T16:21:44.143Z,3.03
2023-01-19T16:24:11.335Z,1.80
2023-01-19T16:26:38.641Z,3.93
2023-01-19T16:29:11.032Z,1.63
2023-01-19T16:31:39.532Z,2.60
2023-01-19T16:34:06.961Z,1.80
2023-01-19T16:36:36.453Z,4.27
2023-01-19T16:39:10.671Z,1.43
2023-01-19T16:41:40.247Z,3.33
2023-01-19T16:44:08.353Z,2.93
2023-01-19T16:46:38.827Z,1.93
2023-01-19T16:49:12.721Z,4.63
2023-01-19T16:51:40.387Z,1.07
2023-01-19T16:54:08.151Z,2.87
2023-01-19T16:56:35.470Z,2.80
2023-01-19T16:59:02.675Z,3.27
2023-01-19T17:01:30.253Z,1.77
2023-01-19T17:03:57.694Z,3.13
2023-01-19T17:06:25.895Z,2.33
2023-01-19T17:08:53.802Z,2.77
2023-01-19T17:11:27.385Z,2.03
2023-01-19T17:13:56.903Z,3.03
2023-01-19T17:16:25.215Z,3.80
2023-01-19T17:18:52.926Z,1.40
2023-01-19T17:21:20.310Z,3.87
2023-01-19T17:23:49.403Z,4.43
2023-01-19T17:26:17.874Z,3.13
2023-01-19T17:28:45.338Z,4.27
2023-01-19T17:31:19.262Z,4.20
2023-01-19T17:33:48.193Z,3.37
2023-01-19T17:36:21.290Z,4.33
2023-01-19T17:38:56.222Z,5.43
2023-01-19T17:41:28.583Z,2.77
2023-01-19T17:43:56.560Z,2.07
2023-01-19T17:46:25.962Z,4.20
2023-01-19T17:49:02.010Z,1.80
2023-01-19T17:51:30.459Z,2.13
2023-01-19T17:53:58.623Z,3.07
2023-01-19T17:56:30.127Z,3.27
2023-01-19T17:58:58.286Z,6.83
2023-01-19T18:01:28.367Z,2.43
2023-01-19T18:03:56.437Z,5.47
2023-01-19T18:06:24.187Z,4.23
2023-01-19T18:08:52.582Z,3.67
2023-01-19T18:11:21.066Z,2.77
2023-01-19T18:13:50.649Z,2.83
2023-01-19T18:16:24.193Z,1.77
2023-01-19T18:18:53.767Z,2.47
2023-01-19T18:21:22.895Z,2.80
2023-01-19T18:23:51.223Z,4.43
2023-01-19T18:26:20.756Z,2.93
2023-01-19T18:28:48.675Z,3.60
2023-01-19T18:31:18.395Z,3.17
2023-01-19T18:33:47.309Z,3.00
2023-01-19T18:36:15.574Z,2.87
2023-01-19T18:38:43.190Z,4.23
2023-01-19T18:41:11.532Z,2.83
2023-01-19T18:43:39.511Z,3.60
2023-01-19T18:46:07.434Z,4.97
2023-01-19T18:48:34.888Z,4.73
2023-01-19T18:51:10.722Z,1.97
2023-01-19T18:53:38.198Z,2.67
2023-01-19T18:56:05.947Z,3.27
2023-01-19T18:58:34.051Z,4.80
2023-01-19T19:01:01.871Z,5.23
2023-01-19T19:03:29.812Z,2.93
2023-01-19T19:05:57.192Z,2.63
2023-01-19T19:08:24.466Z,1.90
2023-01-19T19:10:51.714Z,2.43
2023-01-19T19:13:21.886Z,2.53
2023-01-19T19:15:49.211Z,3.13
2023-01-19T19:18:16.605Z,4.10
2023-01-19T19:20:43.883Z,4.30
2023-01-19T19:23:11.907Z,3.67
2023-01-19T19:25:39.191Z,4.37
2023-01-19T19:28:06.722Z,4.40
2023-01-19T19:30:35.797Z,5.00
2023-01-19T19:33:03.899Z,2.90
2023-01-19T19:35:31.621Z,4.93
2023-01-19T19:37:59.151Z,3.33
2023-01-19T19:40:27.735Z,2.57
2023-01-19T19:42:56.983Z,1.40
2023-01-19T19:45:25.834Z,4.70
2023-01-19T19:47:53.112Z,4.67
2023-01-19T19:50:20.286Z,5.70
2023-01-19T19:52:47.467Z,2.57
2023-01-19T19:55:14.730Z,2.20
2023-01-19T19:57:41.938Z,3.67
2023-01-19T20:00:09.732Z,3.33
2023-01-19T20:02:37.035Z,4.00
2023-01-19T20:05:05.190Z,2.60
2023-01-19T20:07:32.903Z,3.90
2023-01-19T20:10:00.411Z,4.60
2023-01-19T20:12:27.899Z,8.43
2023-01-19T20:14:55.019Z,4.50
2023-01-19T20:17:23.321Z,3.23
2023-01-19T20:19:50.595Z,5.27
2023-01-19T20:22:18.256Z,3.97
2023-01-19T20:24:45.688Z,4.73
2023-01-19T20:27:12.930Z,2.20
2023-01-19T20:29:40.385Z,2.17
2023-01-19T20:32:08.179Z,2.37
2023-01-19T20:34:35.780Z,4.63
2023-01-19T20:37:04.073Z,3.33
2023-01-19T20:39:33.575Z,2.00
2023-01-19T20:42:01.533Z,2.93
2023-01-19T20:44:29.136Z,3.43
2023-01-19T20:46:56.632Z,5.07
2023-01-19T20:49:23.821Z,2.60
2023-01-19T20:51:52.206Z,3.63
2023-01-19T20:54:22.380Z,2.83
2023-01-19T20:56:49.708Z,2.70
2023-01-19T20:59:17.517Z,2.93
2023-01-19T21:01:45.765Z,2.17
2023-01-19T21:04:13.236Z,3.40
2023-01-19T21:06:41.547Z,3.93
2023-01-19T21:09:10.123Z,2.03
2023-01-19T21:11:38.612Z,4.53
2023-01-19T21:14:06.633Z,1.80
2023-01-19T21:16:34.995Z,2.10
2023-01-19T21:19:04.737Z,6.27
2023-01-19T21:21:33.158Z,4.63
2023-01-19T21:24:02.157Z,1.83
2023-01-19T21:26:30.457Z,2.40
2023-01-19T21:28:58.857Z,3.93
2023-01-19T21:31:27.921Z,3.07
2023-01-19T21:33:56.749Z,2.67
2023-01-19T21:36:24.780Z,2.30
2023-01-19T21:38:52.630Z,5.27
2023-01-19T21:41:20.269Z,3.90
2023-01-19T21:43:47.749Z,4.53
2023-01-19T21:46:18.050Z,4.30
2023-01-19T21:48:46.060Z,2.17
2023-01-19T21:51:14.021Z,3.90
2023-01-19T21:53:41.744Z,3.80
2023-01-19T21:56:10.010Z,2.97
2023-01-19T21:58:37.546Z,7.33
2023-01-19T22:01:10.896Z,5.87
2023-01-19T22:03:38.532Z,5.53
2023-01-19T22:06:07.220Z,3.17
2023-01-19T22:08:49.905Z,8.67
2023-01-19T22:11:19.821Z,5.00
2023-01-19T22:13:47.392Z,5.70
2023-01-19T22:16:17.277Z,5.23
2023-01-19T22:18:46.828Z,3.70
2023-01-19T22:21:17.739Z,6.10
2023-01-19T22:23:48.161Z,5.77
2023-01-19T22:26:15.628Z,7.17
2023-01-19T22:28:43.073Z,3.90
2023-01-19T22:31:18.271Z,7.40
2023-01-19T22:33:45.934Z,7.13
2023-01-19T22:36:19.496Z,6.67
2023-01-19T22:38:51.661Z,5.47
2023-01-19T22:41:24.542Z,4.37
2023-01-19T22:43:54.529Z,4.97
2023-01-19T22:46:24.296Z,8.40
2023-01-19T22:48:53.062Z,5.60
2023-01-19T22:51:21.348Z,5.47
2023-01-19T22:53:48.606Z,6.23
2023-01-19T22:56:17.763Z,5.07
2023-01-19T22:58:46.226Z,9.90
2023-01-19T23:01:16.068Z,6.77
2023-01-19T23:03:43.504Z,8.87
2023-01-19T23:06:13.044Z,4.90
2023-01-19T23:08:41.460Z,6.03
2023-01-19T23:11:14.844Z,8.70
2023-01-19T23:13:42.976Z,6.10
2023-01-19T23:16:11.546Z,6.17
2023-01-19T23:18:39.627Z,7.47
2023-01-19T23:21:09.736Z,3.43
2023-01-19T23:23:37.507Z,7.10
2023-01-19T23:26:07.467Z,5.97
2023-01-19T23:28:36.954Z,5.57
2023-01-19T23:31:22.603Z,5.47
2023-01-19T23:33:51.905Z,8.40
2023-01-19T23:36:20.135Z,7.03
2023-01-19T23:38:52.939Z,6.87
2023-01-19T23:41:21.244Z,5.43
2023-01-19T23:43:48.730Z,11.00
2023-01-19T23:46:17.170Z,7.00
2023-01-19T23:48:45.196Z,5.10
2023-01-19T23:51:16.619Z,8.43
2023-01-19T23:53:44.145Z,7.67
2023-01-19T23:56:20.871Z,5.00
2023-01-19T23:58:52.687Z,6.80
